sensor_id;sensor_type;location;lat;lon;timestamp;pressure;altitude;pressure_sealevel;temperature;humidity
39309;BME280;26019;47.510;19.122;2023-12-07T00:00:12;100000.50;;;0.89;100.00
39309;BME280;26019;47.510;19.122;2023-12-07T00:10:14;100011.94;;;0.74;100.00
39309;BME280;26019;47.510;19.122;2023-12-07T00:20:18;100004.50;;;0.81;100.00
39309;BME280;26019;47.510;19.122;2023-12-07T00:30:21;99999.19;;;0.73;100.00
39309;BME280;26019;47.510;19.122;2023-12-07T00:40:23;100005.94;;;0.72;100.00
39309;BME280;26019;47.510;19.122;2023-12-07T00:50:25;99998.50;;;0.79;100.00
39309;BME280;26019;47.510;19.122;2023-12-07T01:00:27;100007.75;;;0.77;100.00
39309;BME280;26019;47.510;19.122;2023-12-07T01:10:29;99998.19;;;0.68;100.00
39309;BME280;26019;47.510;19.122;2023-12-07T01:20:31;99996.66;;;0.73;100.00
39309;BME280;26019;47.510;19.122;2023-12-07T01:30:33;99994.91;;;0.72;100.00
39309;BME280;26019;47.510;19.122;2023-12-07T01:40:34;99983.97;;;0.74;100.00
39309;BME280;26019;47.510;19.122;2023-12-07T01:50:36;99979.78;;;0.77;100.00
39309;BME280;26019;47.510;19.122;2023-12-07T02:00:38;99991.59;;;0.74;100.00
39309;BME280;26019;47.510;19.122;2023-12-07T02:10:41;99992.31;;;0.70;100.00
39309;BME280;26019;47.510;19.122;2023-12-07T02:20:48;99978.88;;;0.74;100.00
39309;BME280;26019;47.510;19.122;2023-12-07T02:30:54;99987.31;;;0.73;100.00
39309;BME280;26019;47.510;19.122;2023-12-07T02:40:57;99988.19;;;0.74;100.00
39309;BME280;26019;47.510;19.122;2023-12-07T02:51:00;99992.31;;;0.70;100.00
39309;BME280;26019;47.510;19.122;2023-12-07T03:01:03;99989.00;;;0.73;100.00
39309;BME280;26019;47.510;19.122;2023-12-07T03:11:06;99995.78;;;0.72;100.00
39309;BME280;26019;47.510;19.122;2023-12-07T03:21:08;100005.00;;;0.69;100.00
39309;BME280;26019;47.510;19.122;2023-12-07T03:31:09;100013.56;;;0.72;100.00
39309;BME280;26019;47.510;19.122;2023-12-07T03:41:11;100010.94;;;0.69;100.00
39309;BME280;26019;47.510;19.122;2023-12-07T03:51:13;100023.72;;;0.71;100.00
39309;BME280;26019;47.510;19.122;2023-12-07T04:01:26;100019.75;;;0.81;100.00
39309;BME280;26019;47.510;19.122;2023-12-07T04:11:28;100033.00;;;0.70;100.00
39309;BME280;26019;47.510;19.122;2023-12-07T04:21:29;100038.09;;;0.70;100.00
39309;BME280;26019;47.510;19.122;2023-12-07T04:31:32;100042.28;;;0.68;100.00
39309;BME280;26019;47.510;19.122;2023-12-07T04:41:35;100055.91;;;0.70;100.00
39309;BME280;26019;47.510;19.122;2023-12-07T04:51:37;100063.44;;;0.67;100.00
39309;BME280;26019;47.510;19.122;2023-12-07T05:01:40;100066.66;;;0.60;100.00
39309;BME280;26019;47.510;19.122;2023-12-07T05:11:44;100074.31;;;0.62;100.00
39309;BME280;26019;47.510;19.122;2023-12-07T05:21:48;100082.44;;;0.50;100.00
39309;BME280;26019;47.510;19.122;2023-12-07T05:31:51;100104.53;;;0.52;100.00
39309;BME280;26019;47.510;19.122;2023-12-07T05:41:52;100104.69;;;0.57;100.00
39309;BME280;26019;47.510;19.122;2023-12-07T05:51:54;100109.88;;;0.60;100.00
39309;BME280;26019;47.510;19.122;2023-12-07T06:01:56;100123.44;;;0.61;100.00
39309;BME280;26019;47.510;19.122;2023-12-07T06:11:59;100126.16;;;0.65;100.00
39309;BME280;26019;47.510;19.122;2023-12-07T06:22:01;100136.50;;;0.71;100.00
39309;BME280;26019;47.510;19.122;2023-12-07T06:32:03;100139.84;;;0.70;100.00
39309;BME280;26019;47.510;19.122;2023-12-07T06:42:06;100155.00;;;0.67;100.00
39309;BME280;26019;47.510;19.122;2023-12-07T06:52:08;100168.91;;;0.77;100.00
39309;BME280;26019;47.510;19.122;2023-12-07T07:02:10;100182.06;;;0.91;100.00
39309;BME280;26019;47.510;19.122;2023-12-07T07:12:13;100184.59;;;0.91;100.00
39309;BME280;26019;47.510;19.122;2023-12-07T07:22:18;100190.50;;;0.90;100.00
39309;BME280;26019;47.510;19.122;2023-12-07T07:32:21;100186.53;;;0.98;100.00
39309;BME280;26019;47.510;19.122;2023-12-07T07:42:23;100203.03;;;1.11;100.00
39309;BME280;26019;47.510;19.122;2023-12-07T07:52:25;100214.06;;;1.12;100.00
39309;BME280;26019;47.510;19.122;2023-12-07T08:02:28;100222.09;;;1.24;100.00
39309;BME280;26019;47.510;19.122;2023-12-07T08:12:33;100227.13;;;1.81;100.00
39309;BME280;26019;47.510;19.122;2023-12-07T08:22:37;100224.59;;;1.82;100.00
39309;BME280;26019;47.510;19.122;2023-12-07T08:32:39;100230.63;;;2.16;100.00
39309;BME280;26019;47.510;19.122;2023-12-07T08:42:50;100231.28;;;2.41;100.00
39309;BME280;26019;47.510;19.122;2023-12-07T08:52:53;100234.91;;;1.85;100.00
39309;BME280;26019;47.510;19.122;2023-12-07T09:03:07;100235.03;;;2.22;100.00
39309;BME280;26019;47.510;19.122;2023-12-07T09:13:10;100241.31;;;2.03;100.00
39309;BME280;26019;47.510;19.122;2023-12-07T09:23:12;100239.59;;;2.67;100.00
39309;BME280;26019;47.510;19.122;2023-12-07T09:33:14;100238.91;;;2.39;100.00
39309;BME280;26019;47.510;19.122;2023-12-07T09:43:18;100235.38;;;2.36;100.00
39309;BME280;26019;47.510;19.122;2023-12-07T09:53:23;100237.81;;;2.30;100.00
39309;BME280;26019;47.510;19.122;2023-12-07T10:03:48;100241.41;;;2.38;100.00
39309;BME280;26019;47.510;19.122;2023-12-07T10:13:50;100231.66;;;2.23;100.00
39309;BME280;26019;47.510;19.122;2023-12-07T10:23:52;100234.66;;;2.40;100.00
39309;BME280;26019;47.510;19.122;2023-12-07T10:33:55;100240.06;;;2.52;100.00
39309;BME280;26019;47.510;19.122;2023-12-07T10:44:01;100239.91;;;2.46;100.00
39309;BME280;26019;47.510;19.122;2023-12-07T10:54:04;100242.66;;;2.54;100.00
39309;BME280;26019;47.510;19.122;2023-12-07T11:04:06;100242.09;;;2.66;100.00
39309;BME280;26019;47.510;19.122;2023-12-07T11:14:09;100248.72;;;2.93;100.00
39309;BME280;26019;47.510;19.122;2023-12-07T11:24:16;100257.16;;;2.90;100.00
39309;BME280;26019;47.510;19.122;2023-12-07T11:44:41;100256.47;;;2.62;100.00
39309;BME280;26019;47.510;19.122;2023-12-07T11:54:44;100258.25;;;3.00;100.00
39309;BME280;26019;47.510;19.122;2023-12-07T12:04:46;100256.25;;;2.88;100.00
39309;BME280;26019;47.510;19.122;2023-12-07T12:14:48;100264.13;;;3.34;100.00
39309;BME280;26019;47.510;19.122;2023-12-07T12:24:50;100272.19;;;3.13;100.00
39309;BME280;26019;47.510;19.122;2023-12-07T12:34:52;100270.78;;;2.56;100.00
39309;BME280;26019;47.510;19.122;2023-12-07T12:45:08;100278.97;;;2.12;100.00
39309;BME280;26019;47.510;19.122;2023-12-07T12:55:11;100297.09;;;1.92;100.00
39309;BME280;26019;47.510;19.122;2023-12-07T13:05:15;100292.78;;;1.89;100.00
39309;BME280;26019;47.510;19.122;2023-12-07T13:15:17;100297.47;;;1.75;100.00
39309;BME280;26019;47.510;19.122;2023-12-07T13:25:18;100302.03;;;2.16;100.00
39309;BME280;26019;47.510;19.122;2023-12-07T13:35:20;100311.44;;;1.88;100.00
39309;BME280;26019;47.510;19.122;2023-12-07T13:45:22;100323.28;;;1.86;100.00
39309;BME280;26019;47.510;19.122;2023-12-07T13:55:24;100322.94;;;2.04;100.00
39309;BME280;26019;47.510;19.122;2023-12-07T14:05:27;100333.00;;;1.71;100.00
39309;BME280;26019;47.510;19.122;2023-12-07T14:15:29;100335.03;;;1.54;100.00
39309;BME280;26019;47.510;19.122;2023-12-07T14:25:52;100357.13;;;1.55;100.00
39309;BME280;26019;47.510;19.122;2023-12-07T14:36:04;100371.66;;;1.57;100.00
39309;BME280;26019;47.510;19.122;2023-12-07T14:46:06;100386.75;;;1.51;100.00
39309;BME280;26019;47.510;19.122;2023-12-07T14:56:10;100392.78;;;1.27;100.00
39309;BME280;26019;47.510;19.122;2023-12-07T15:06:13;100404.69;;;1.28;100.00
39309;BME280;26019;47.510;19.122;2023-12-07T15:16:16;100407.63;;;1.15;100.00
39309;BME280;26019;47.510;19.122;2023-12-07T15:26:22;100424.38;;;1.08;100.00
39309;BME280;26019;47.510;19.122;2023-12-07T15:36:24;100428.97;;;1.18;100.00
39309;BME280;26019;47.510;19.122;2023-12-07T15:46:26;100438.63;;;1.27;100.00
39309;BME280;26019;47.510;19.122;2023-12-07T15:56:28;100448.13;;;1.33;100.00
39309;BME280;26019;47.510;19.122;2023-12-07T16:06:33;100458.06;;;1.25;100.00
39309;BME280;26019;47.510;19.122;2023-12-07T16:16:45;100468.47;;;1.31;100.00
39309;BME280;26019;47.510;19.122;2023-12-07T16:26:49;100469.53;;;1.38;100.00
39309;BME280;26019;47.510;19.122;2023-12-07T16:36:52;100477.50;;;1.47;100.00
39309;BME280;26019;47.510;19.122;2023-12-07T16:46:59;100480.63;;;1.40;100.00
39309;BME280;26019;47.510;19.122;2023-12-07T16:57:00;100492.78;;;1.47;100.00
39309;BME280;26019;47.510;19.122;2023-12-07T17:07:03;100507.16;;;1.47;100.00
39309;BME280;26019;47.510;19.122;2023-12-07T17:17:05;100519.91;;;1.47;100.00
39309;BME280;26019;47.510;19.122;2023-12-07T17:27:08;100514.78;;;1.45;100.00
39309;BME280;26019;47.510;19.122;2023-12-07T17:37:10;100517.84;;;1.37;100.00
39309;BME280;26019;47.510;19.122;2023-12-07T17:47:12;100513.84;;;1.19;100.00
39309;BME280;26019;47.510;19.122;2023-12-07T17:57:14;100515.75;;;1.25;100.00
39309;BME280;26019;47.510;19.122;2023-12-07T18:07:15;100516.50;;;1.22;100.00
39309;BME280;26019;47.510;19.122;2023-12-07T18:17:19;100531.38;;;1.36;100.00
39309;BME280;26019;47.510;19.122;2023-12-07T18:27:22;100544.22;;;1.39;100.00
39309;BME280;26019;47.510;19.122;2023-12-07T18:37:24;100551.41;;;1.49;100.00
39309;BME280;26019;47.510;19.122;2023-12-07T18:47:36;100547.91;;;1.47;100.00
39309;BME280;26019;47.510;19.122;2023-12-07T18:57:38;100549.56;;;1.45;100.00
39309;BME280;26019;47.510;19.122;2023-12-07T19:07:40;100545.22;;;1.42;100.00
39309;BME280;26019;47.510;19.122;2023-12-07T19:17:44;100552.00;;;1.42;100.00
39309;BME280;26019;47.510;19.122;2023-12-07T19:27:46;100545.97;;;1.40;100.00
39309;BME280;26019;47.510;19.122;2023-12-07T19:37:48;100546.09;;;1.43;100.00
39309;BME280;26019;47.510;19.122;2023-12-07T19:47:51;100545.59;;;1.29;100.00
39309;BME280;26019;47.510;19.122;2023-12-07T19:57:54;100550.53;;;1.24;100.00
39309;BME280;26019;47.510;19.122;2023-12-07T20:07:56;100555.03;;;1.31;100.00
39309;BME280;26019;47.510;19.122;2023-12-07T20:18:01;100559.50;;;1.39;100.00
39309;BME280;26019;47.510;19.122;2023-12-07T20:28:10;100578.78;;;1.30;100.00
39309;BME280;26019;47.510;19.122;2023-12-07T20:38:33;100579.59;;;1.29;100.00
39309;BME280;26019;47.510;19.122;2023-12-07T20:48:56;100597.78;;;1.40;100.00
39309;BME280;26019;47.510;19.122;2023-12-07T20:59:31;100598.88;;;1.47;100.00
39309;BME280;26019;47.510;19.122;2023-12-07T21:09:49;100614.00;;;1.42;100.00
39309;BME280;26019;47.510;19.122;2023-12-07T21:19:53;100615.44;;;1.36;100.00
39309;BME280;26019;47.510;19.122;2023-12-07T21:29:58;100614.84;;;1.43;100.00
39309;BME280;26019;47.510;19.122;2023-12-07T21:40:02;100623.19;;;1.39;100.00
39309;BME280;26019;47.510;19.122;2023-12-07T21:50:07;100619.56;;;1.32;100.00
39309;BME280;26019;47.510;19.122;2023-12-07T22:00:10;100611.75;;;1.27;100.00
39309;BME280;26019;47.510;19.122;2023-12-07T22:10:14;100616.09;;;1.30;100.00
39309;BME280;26019;47.510;19.122;2023-12-07T22:20:30;100610.25;;;1.32;100.00
39309;BME280;26019;47.510;19.122;2023-12-07T22:30:32;100613.91;;;1.41;100.00
39309;BME280;26019;47.510;19.122;2023-12-07T22:40:34;100596.19;;;1.19;100.00
39309;BME280;26019;47.510;19.122;2023-12-07T22:50:36;100595.97;;;1.13;100.00
39309;BME280;26019;47.510;19.122;2023-12-07T23:00:38;100593.13;;;1.06;100.00
39309;BME280;26019;47.510;19.122;2023-12-07T23:10:40;100579.59;;;0.84;100.00
39309;BME280;26019;47.510;19.122;2023-12-07T23:20:42;100588.06;;;0.39;100.00
39309;BME280;26019;47.510;19.122;2023-12-07T23:30:44;100582.34;;;0.23;100.00
39309;BME280;26019;47.510;19.122;2023-12-07T23:40:45;100571.75;;;0.12;100.00
39309;BME280;26019;47.510;19.122;2023-12-07T23:50:47;100565.56;;;0.06;100.00
